Time;durP1;ratioP1;P1;durP2;ratioP2;P2;SDS_P1;SDS_P2;PMS_P1;PMS_P2;Temp;Humidity;BMP_temperature;BMP_pressure;BME280_temperature;BME280_humidity;BME280_pressure;Samples;Min_cycle;Max_cycle;Signal;HPM_P1;HPM_P2
2022/05/04 00:01:35;;;;;;;;;25.00;25.00;;;;;15.93;51.69;101085.41;5062677;27;45508;-60
2022/05/04 00:04:01;;;;;;;;;25.67;24.67;;;;;15.90;52.95;101082.00;5058240;27;45433;-60
2022/05/04 00:06:27;;;;;;;;;29.67;27.33;;;;;15.84;52.96;101076.97;5067873;28;45493;-59
2022/05/04 00:08:52;;;;;;;;;25.67;24.67;;;;;15.94;52.76;101082.69;5069253;27;45553;-60
2022/05/04 00:11:18;;;;;;;;;28.33;25.33;;;;;15.90;53.44;101081.13;5073054;27;45585;-61
2022/05/04 00:13:43;;;;;;;;;30.67;28.33;;;;;15.96;52.65;101075.53;5062513;27;46265;-60
2022/05/04 00:16:11;;;;;;;;;27.67;27.00;;;;;15.97;52.80;101079.88;5059670;28;45473;-60
2022/05/04 00:18:36;;;;;;;;;27.67;24.67;;;;;16.00;52.99;101076.22;5075882;27;45474;-60
2022/05/04 00:21:02;;;;;;;;;29.33;26.67;;;;;15.95;51.90;101064.97;5071035;28;45771;-60
2022/05/04 00:23:27;;;;;;;;;25.00;24.00;;;;;15.96;52.51;101064.03;5055452;28;45942;-61
2022/05/04 00:26:04;;;;;;;;;30.00;28.67;;;;;15.88;52.95;101065.28;5059286;28;45459;-59
2022/05/04 00:28:30;;;;;;;;;24.33;24.33;;;;;15.88;52.85;101064.44;5067761;27;45445;-60
2022/05/04 00:30:56;;;;;;;;;33.00;27.67;;;;;15.87;52.47;101065.34;5073530;27;45563;-60
2022/05/04 00:33:34;;;;;;;;;27.67;26.33;;;;;15.90;51.89;101059.91;5061792;28;45491;-60
2022/05/04 00:35:59;;;;;;;;;32.67;28.33;;;;;15.90;52.17;101059.91;5043050;28;45393;-59
2022/05/04 00:38:27;;;;;;;;;33.00;30.00;;;;;15.94;52.22;101057.97;5077054;27;45366;-59
2022/05/04 00:40:55;;;;;;;;;29.00;28.00;;;;;15.94;52.91;101056.16;5056096;27;45585;-59
2022/05/04 00:43:25;;;;;;;;;28.00;26.33;;;;;15.92;51.93;101047.41;5053176;28;46107;-60
2022/05/04 00:45:51;;;;;;;;;27.67;27.67;;;;;15.91;52.14;101051.03;5069827;28;45417;-61
2022/05/04 00:48:18;;;;;;;;;25.00;24.00;;;;;15.90;53.14;101057.25;5075620;27;45431;-59
2022/05/04 00:50:50;;;;;;;;;29.00;24.67;;;;;15.81;53.07;101055.91;5074376;28;45698;-60
2022/05/04 00:53:18;;;;;;;;;27.33;26.00;;;;;15.72;52.83;101061.69;5075299;28;46322;-60
2022/05/04 00:55:50;;;;;;;;;34.67;28.67;;;;;15.73;53.02;101051.94;5078277;27;45563;-60
2022/05/04 01:01:24;;;;;;;;;24.00;24.00;;;;;15.76;52.46;101065.03;5059749;28;45480;-60
2022/05/04 01:03:50;;;;;;;;;25.00;23.00;;;;;15.68;52.12;101068.91;5057730;28;46333;-59
2022/05/04 01:06:25;;;;;;;;;26.33;25.33;;;;;15.71;53.13;101073.22;5060696;28;45378;-59
2022/05/04 01:08:59;;;;;;;;;32.33;29.33;;;;;15.75;52.17;101064.19;5065335;27;45513;-59
2022/05/04 01:11:39;;;;;;;;;32.67;30.00;;;;;15.71;52.17;101069.72;5054969;28;45547;-60
2022/05/04 01:14:09;;;;;;;;;26.33;24.00;;;;;15.65;53.18;101055.78;5054945;28;46294;-60
2022/05/04 01:16:48;;;;;;;;;36.67;29.00;;;;;15.56;53.12;101061.56;5054876;28;45559;-60
2022/05/04 01:19:17;;;;;;;;;29.33;28.33;;;;;15.54;52.86;101058.09;5056971;28;45388;-60
2022/05/04 01:21:54;;;;;;;;;28.67;28.67;;;;;15.50;53.06;101061.84;5055920;28;45519;-59
2022/05/04 01:24:20;;;;;;;;;27.33;24.67;;;;;15.54;53.39;101063.41;5058886;28;45474;-59
2022/05/04 01:26:45;;;;;;;;;38.67;32.00;;;;;15.58;52.80;101062.34;5058010;28;45501;-60
2022/05/04 01:29:14;;;;;;;;;32.67;29.00;;;;;15.47;53.07;101059.31;5061281;28;45799;-59
2022/05/04 01:31:40;;;;;;;;;31.67;28.33;;;;;15.50;53.73;101059.19;5059483;28;45627;-58
2022/05/04 01:34:05;;;;;;;;;35.67;32.00;;;;;15.51;52.93;101062.72;5057931;28;45405;-59
2022/05/04 01:36:30;;;;;;;;;34.00;29.67;;;;;15.40;52.90;101056.13;5057989;28;45360;-58
2022/05/04 01:38:56;;;;;;;;;33.33;30.00;;;;;15.50;53.13;101066.28;5059319;28;45367;-61
2022/05/04 01:44:06;;;;;;;;;30.67;30.00;;;;;15.43;53.02;101068.38;5058098;28;45808;-59
2022/05/04 01:46:31;;;;;;;;;29.00;28.00;;;;;15.50;53.35;101069.81;5058073;28;45383;-60
2022/05/04 01:48:57;;;;;;;;;31.67;29.33;;;;;15.44;53.50;101056.81;5059088;28;45609;-59
2022/05/04 01:51:23;;;;;;;;;31.33;30.33;;;;;15.50;52.81;101063.63;5056576;28;45394;-60
2022/05/04 01:53:48;;;;;;;;;31.00;29.67;;;;;15.51;53.70;101062.72;5062968;28;45594;-59
2022/05/04 01:56:14;;;;;;;;;28.67;27.00;;;;;15.48;52.68;101046.97;5078065;28;45541;-59
2022/05/04 01:58:39;;;;;;;;;32.33;29.00;;;;;15.56;52.78;101056.25;5069176;27;45370;-59
2022/05/04 02:01:05;;;;;;;;;32.33;29.33;;;;;15.55;52.88;101059.81;5063649;27;45564;-60
2022/05/04 02:03:31;;;;;;;;;35.67;31.00;;;;;15.48;52.85;101057.56;5055968;28;46556;-59
2022/05/04 02:05:56;;;;;;;;;34.67;29.33;;;;;15.42;53.46;101062.22;5059535;28;45686;-60
2022/05/04 02:08:21;;;;;;;;;33.33;30.00;;;;;15.39;53.35;101069.44;5058018;28;45671;-60
2022/05/04 02:10:48;;;;;;;;;23.33;23.33;;;;;15.38;52.74;101060.63;5058379;28;45631;-59
2022/05/04 02:13:13;;;;;;;;;39.33;33.67;;;;;15.31;54.02;101061.84;5057581;28;46112;-59
2022/05/04 02:15:38;;;;;;;;;39.67;33.33;;;;;15.34;53.38;101064.38;5074639;28;45487;-60
2022/05/04 02:18:04;;;;;;;;;35.67;33.33;;;;;15.39;53.18;101064.13;5077765;28;45387;-60
2022/05/04 02:20:29;;;;;;;;;36.00;31.67;;;;;15.41;53.52;101062.28;5077353;28;45503;-60
2022/05/04 02:22:54;;;;;;;;;39.67;33.67;;;;;15.48;53.34;101063.72;5075536;28;45505;-60
2022/05/04 02:25:20;;;;;;;;;37.00;33.67;;;;;15.52;52.70;101059.13;5068647;28;45456;-60
2022/05/04 02:27:45;;;;;;;;;29.67;29.33;;;;;15.57;52.67;101057.94;5057302;28;45937;-60
2022/05/04 02:30:13;;;;;;;;;27.00;25.00;;;;;15.53;52.95;101048.44;5057233;28;45497;-60
2022/05/04 02:32:39;;;;;;;;;30.33;28.33;;;;;15.50;52.83;101045.06;5057228;28;45450;-59
2022/05/04 02:37:54;;;;;;;;;35.00;30.33;;;;;15.58;53.05;101046.44;5057239;28;45492;-60
2022/05/04 02:40:20;;;;;;;;;33.33;31.00;;;;;15.54;53.25;101052.81;5056987;28;45363;-60
2022/05/04 02:42:46;;;;;;;;;35.67;32.33;;;;;15.50;53.34;101051.25;5057948;28;46392;-60
2022/05/04 02:45:11;;;;;;;;;31.67;29.00;;;;;15.42;53.26;101043.66;5058111;28;45425;-60
2022/05/04 02:47:38;;;;;;;;;35.00;32.00;;;;;15.35;53.02;101059.94;5057066;28;45414;-59
2022/05/04 02:50:05;;;;;;;;;35.67;32.00;;;;;15.23;53.78;101059.59;5056971;28;45485;-59
2022/05/04 02:52:30;;;;;;;;;34.33;33.33;;;;;15.16;53.63;101054.66;5057800;28;46121;-59
2022/05/04 02:54:55;;;;;;;;;29.67;28.33;;;;;15.18;53.36;101037.75;5062212;28;45547;-59
2022/05/04 02:57:21;;;;;;;;;34.00;28.00;;;;;15.15;54.16;101040.56;5076828;27;45397;-59
2022/05/04 02:59:47;;;;;;;;;34.00;32.33;;;;;15.10;53.85;101039.03;5077015;27;45573;-59
2022/05/04 03:02:27;;;;;;;;;35.67;31.67;;;;;15.06;53.63;101035.66;5071897;28;46152;-60
2022/05/04 03:05:00;;;;;;;;;35.33;31.00;;;;;15.16;54.00;101044.91;5056585;28;45571;-59
2022/05/04 03:07:27;;;;;;;;;36.33;33.33;;;;;15.16;53.51;101044.91;5060936;27;45379;-59
2022/05/04 03:09:54;;;;;;;;;29.33;28.67;;;;;15.17;53.57;101049.25;5088223;27;45618;-59
2022/05/04 03:12:19;;;;;;;;;46.00;37.33;;;;;15.18;53.65;101036.91;5074733;28;45528;-59
2022/05/04 03:14:45;;;;;;;;;47.25;38.50;;;;;15.14;53.34;101037.97;5076734;28;45437;-59
2022/05/04 03:17:11;;;;;;;;;49.00;41.00;;;;;15.12;53.51;101035.38;5076900;28;45416;-59
2022/05/04 03:19:37;;;;;;;;;58.50;46.00;;;;;15.11;53.84;101038.09;5074363;28;45571;-59
2022/05/04 03:22:03;;;;;;;;;62.50;51.00;;;;;15.07;53.20;101034.75;5056195;28;45931;-60
2022/05/04 03:24:28;;;;;;;;;63.75;49.50;;;;;15.07;53.92;101031.22;5056052;28;45626;-59
2022/05/04 03:26:53;;;;;;;;;63.50;51.50;;;;;15.08;53.41;101027.66;5057295;28;45438;-59
2022/05/04 03:29:19;;;;;;;;;57.50;47.50;;;;;15.09;53.84;101030.22;5056591;28;45450;-59
2022/05/04 03:31:44;;;;;;;;;8.50;6.00;;;;;15.09;53.21;101024.06;5056387;28;45743;-60
2022/05/04 03:34:10;;;;;;;;;74.50;59.25;;;;;15.06;53.65;101033.03;5059152;28;45600;-59
2022/05/04 03:36:35;;;;;;;;;76.00;63.75;;;;;15.04;54.27;101032.22;5056486;28;45414;-59
2022/05/04 03:39:01;;;;;;;;;72.00;57.50;;;;;15.02;54.21;101027.00;5057264;28;45490;-59
2022/05/04 03:41:27;;;;;;;;;66.75;54.00;;;;;14.96;54.13;101023.78;5057169;28;45550;-59
2022/05/04 03:43:52;;;;;;;;;68.75;54.50;;;;;14.91;54.32;101018.72;5055995;28;45352;-59
2022/05/04 03:46:21;;;;;;;;;62.75;49.25;;;;;14.94;53.65;101025.66;5054937;28;45422;-60
2022/05/04 03:48:49;;;;;;;;;61.00;49.25;;;;;14.95;53.85;101022.94;5057098;28;45542;-60
2022/05/04 03:51:16;;;;;;;;;61.00;49.00;;;;;14.94;54.50;101026.50;5055700;28;46444;-59
2022/05/04 03:53:42;;;;;;;;;47.50;39.75;;;;;14.89;53.75;101020.56;5056796;28;45621;-59
2022/05/04 03:56:08;;;;;;;;;52.75;44.00;;;;;14.90;53.72;101018.78;5071404;28;45385;-59
2022/05/04 03:58:34;;;;;;;;;52.75;43.25;;;;;14.93;54.22;101029.22;5072946;27;45323;-60
2022/05/04 04:01:00;;;;;;;;;42.00;34.75;;;;;14.90;54.52;101032.88;5074008;28;46063;-59
2022/05/04 04:03:26;;;;;;;;;40.75;36.50;;;;;14.90;53.93;101026.72;5075585;28;45480;-59
2022/05/04 04:05:52;;;;;;;;;32.67;32.00;;;;;14.76;53.92;101028.22;5076128;28;45551;-60
2022/05/04 04:08:17;;;;;;;;;35.67;32.33;;;;;14.75;54.34;101021.22;5074236;28;45517;-59
2022/05/04 04:10:43;;;;;;;;;35.33;32.67;;;;;14.71;54.15;101019.63;5075712;28;46109;-59
2022/05/04 04:13:08;;;;;;;;;33.67;32.00;;;;;14.73;53.98;101028.38;5075956;28;45406;-59
2022/05/04 04:15:33;;;;;;;;;35.00;32.67;;;;;14.59;55.18;101014.91;5075678;28;45453;-59
2022/05/04 04:17:58;;;;;;;;;39.67;32.67;;;;;14.55;54.94;101023.91;5074259;28;45578;-59
2022/05/04 04:23:08;;;;;;;;;40.00;34.00;;;;;14.49;54.60;101038.25;5074464;28;45502;-59
2022/05/04 04:25:34;;;;;;;;;36.67;31.33;;;;;14.43;54.61;101029.72;5075672;28;45475;-59
2022/05/04 04:27:59;;;;;;;;;37.33;32.33;;;;;14.43;55.11;101035.03;5074012;28;45507;-59
2022/05/04 04:30:24;;;;;;;;;31.67;27.67;;;;;14.48;55.02;101031.25;5075553;28;46132;-60
2022/05/04 04:32:50;;;;;;;;;31.67;29.33;;;;;14.54;54.41;101036.28;5075393;28;49331;-59
2022/05/04 04:35:15;;;;;;;;;32.33;29.33;;;;;14.58;54.09;101042.28;5075688;28;45425;-59
2022/05/04 04:37:40;;;;;;;;;37.33;33.67;;;;;14.50;54.83;101026.72;5075510;28;45557;-59
2022/05/04 04:40:07;;;;;;;;;39.67;35.00;;;;;14.62;54.82;101035.94;5069763;28;47543;-60
2022/05/04 04:42:32;;;;;;;;;32.00;30.33;;;;;14.65;54.13;101040.25;5061686;28;45426;-59
2022/05/04 04:44:57;;;;;;;;;35.67;32.33;;;;;14.69;53.99;101034.72;5075526;27;45376;-60
2022/05/04 04:47:23;;;;;;;;;32.00;30.33;;;;;14.73;54.75;101046.91;5067568;27;48072;-60
2022/05/04 04:49:48;;;;;;;;;36.67;32.00;;;;;14.68;54.95;101043.59;5056871;28;45514;-60
2022/05/04 04:52:13;;;;;;;;;32.33;30.67;;;;;14.67;54.32;101047.19;5055122;28;45494;-60
2022/05/04 04:54:38;;;;;;;;;39.33;33.33;;;;;14.66;54.73;101047.25;5056162;28;45525;-59
2022/05/04 04:57:04;;;;;;;;;36.00;32.67;;;;;14.64;54.20;101044.69;5056699;28;45551;-59
2022/05/04 04:59:30;;;;;;;;;35.33;32.00;;;;;14.62;54.67;101041.22;5065670;28;47391;-59
2022/05/04 05:01:55;;;;;;;;;33.33;31.67;;;;;14.60;54.50;101042.22;5069498;28;50514;-60
2022/05/04 05:04:20;;;;;;;;;42.67;35.33;;;;;14.68;54.35;101046.25;5057269;28;45742;-59
2022/05/04 05:06:46;;;;;;;;;40.00;34.33;;;;;14.74;54.70;101048.59;5058571;28;45455;-58
2022/05/04 05:09:11;;;;;;;;;34.00;32.00;;;;;14.79;54.60;101046.59;5059440;28;46437;-58
2022/05/04 05:11:36;;;;;;;;;30.00;29.67;;;;;14.83;54.56;101054.41;5058450;28;45458;-59
2022/05/04 05:16:45;;;;;;;;;42.33;33.33;;;;;14.90;53.64;101053.22;5059541;28;45482;-59
2022/05/04 05:19:11;;;;;;;;;37.33;34.00;;;;;14.91;53.61;101054.91;5056639;28;48343;-60
2022/05/04 05:21:36;;;;;;;;;34.00;30.00;;;;;14.79;54.12;101051.91;5058883;28;45645;-59
2022/05/04 05:24:02;;;;;;;;;43.33;35.00;;;;;14.85;53.71;101063.16;5056788;28;45748;-60
2022/05/04 05:26:27;;;;;;;;;44.00;33.67;;;;;14.75;54.44;101057.44;5058966;28;45388;-60
2022/05/04 05:28:52;;;;;;;;;35.00;32.67;;;;;14.70;54.31;101059.44;5056469;28;45923;-59
2022/05/04 05:31:18;;;;;;;;;36.00;33.00;;;;;14.70;54.13;101065.56;5058967;28;45530;-60
2022/05/04 05:33:46;;;;;;;;;32.33;32.00;;;;;14.69;53.79;101061.19;5058194;28;45695;-60
2022/05/04 05:36:11;;;;;;;;;35.33;32.33;;;;;14.69;55.24;101061.19;5057908;28;45605;-60
2022/05/04 05:38:36;;;;;;;;;39.75;34.75;;;;;14.71;54.25;101069.94;5075568;27;45370;-60
2022/05/04 05:41:02;;;;;;;;;36.67;32.67;;;;;14.67;54.96;101068.38;5081828;27;45341;-59
2022/05/04 05:43:28;;;;;;;;;33.67;31.67;;;;;14.74;54.64;101064.50;5078103;28;45406;-60
2022/05/04 05:45:53;;;;;;;;;37.67;34.33;;;;;14.79;53.99;101061.63;5076705;28;45404;-58
2022/05/04 05:48:20;;;;;;;;;40.67;33.67;;;;;14.72;54.49;101063.72;5060107;28;47362;-59
2022/05/04 05:50:46;;;;;;;;;38.67;34.00;;;;;14.75;54.50;101063.56;5072358;28;45445;-59
2022/05/04 05:53:14;;;;;;;;;35.33;34.00;;;;;14.80;53.65;101066.88;5057698;28;45382;-59
2022/05/04 05:55:40;;;;;;;;;32.33;30.33;;;;;14.74;53.86;101061.00;5068206;28;45427;-60
2022/05/04 05:58:05;;;;;;;;;35.33;32.00;;;;;14.84;53.81;101072.88;5077429;27;45643;-59
2022/05/04 06:00:31;;;;;;;;;32.67;31.33;;;;;14.83;53.77;101071.19;5074508;28;45463;-59
2022/05/04 06:02:56;;;;;;;;;37.00;32.00;;;;;14.88;53.69;101073.59;5057392;28;45462;-58
2022/05/04 06:05:21;;;;;;;;;33.67;31.33;;;;;14.89;54.04;101070.03;5057796;28;45406;-58
2022/05/04 06:07:48;;;;;;;;;39.33;35.00;;;;;14.99;52.74;101073.97;5062344;28;46977;-58
2022/05/04 06:10:14;;;;;;;;;35.67;32.00;;;;;14.99;53.57;101073.97;5075806;27;45510;-60
2022/05/04 06:12:40;;;;;;;;;37.33;34.00;;;;;15.02;53.13;101071.19;5077643;28;45516;-60
2022/05/04 06:15:08;;;;;;;;;35.67;32.00;;;;;15.00;54.00;101073.06;5077314;28;45449;-60
2022/05/04 06:17:33;;;;;;;;;38.00;33.67;;;;;15.03;53.03;101089.66;5057749;28;46143;-60
2022/05/04 06:19:58;;;;;;;;;36.33;30.33;;;;;15.08;52.97;101091.25;5056831;28;45422;-64
2022/05/04 06:22:24;;;;;;;;;34.67;31.67;;;;;15.07;52.80;101100.09;5058428;28;45458;-60
2022/05/04 06:24:49;;;;;;;;;34.67;32.00;;;;;14.96;52.87;101090.00;5057777;28;45505;-60
2022/05/04 06:27:15;;;;;;;;;37.33;33.67;;;;;14.80;53.67;101085.41;5059642;28;46798;-59
2022/05/04 06:35:11;;;;;;;;;41.33;34.33;;;;;14.87;53.64;101101.03;5076486;27;45441;-61
2022/05/04 06:37:36;;;;;;;;;36.00;33.33;;;;;14.79;53.38;101094.28;5078212;27;46396;-60
2022/05/04 06:40:03;;;;;;;;;39.00;34.00;;;;;14.86;53.30;101096.66;5057098;28;45411;-60
2022/05/04 06:42:29;;;;;;;;;44.33;36.67;;;;;14.78;53.73;101095.22;5072035;28;45391;-60
2022/05/04 06:44:54;;;;;;;;;34.33;31.33;;;;;14.79;53.26;101088.13;5075310;28;45373;-60
2022/05/04 06:47:20;;;;;;;;;35.67;32.33;;;;;14.81;54.05;101091.56;5076844;28;46092;-60
2022/05/04 06:49:45;;;;;;;;;38.67;33.67;;;;;14.88;53.50;101093.00;5075277;28;45622;-60
2022/05/04 06:52:10;;;;;;;;;45.33;35.00;;;;;14.88;53.09;101105.38;5075336;28;45566;-60
2022/05/04 06:54:37;;;;;;;;;43.67;37.33;;;;;14.79;54.10;101085.47;5076783;28;45591;-60
2022/05/04 06:57:02;;;;;;;;;41.67;34.00;;;;;14.91;52.99;101102.59;5074785;27;45565;-60
2022/05/04 06:59:28;;;;;;;;;41.67;32.33;;;;;15.03;53.68;101109.97;5074818;28;45605;-59
2022/05/04 07:01:54;;;;;;;;;39.67;34.67;;;;;14.93;53.14;101100.72;5069821;28;45526;-61
2022/05/04 07:04:20;;;;;;;;;35.67;32.00;;;;;14.96;53.31;101096.19;5056416;28;45690;-60
2022/05/04 07:06:46;;;;;;;;;44.33;35.00;;;;;15.05;53.21;101099.34;5056532;28;45467;-62
2022/05/04 07:09:11;;;;;;;;;43.00;34.33;;;;;15.03;52.42;101104.69;5060997;27;45510;-60
2022/05/04 07:11:37;;;;;;;;;40.25;34.00;;;;;14.97;53.35;101100.53;5067059;28;45581;-60
2022/05/04 07:14:02;;;;;;;;;39.67;34.00;;;;;14.94;53.94;101105.13;5064914;28;45511;-60
2022/05/04 07:16:27;;;;;;;;;33.67;32.67;;;;;14.98;53.83;101101.38;5065618;28;45504;-60
2022/05/04 07:18:53;;;;;;;;;47.00;37.67;;;;;15.06;53.23;101099.25;5074206;28;45415;-59
2022/05/04 07:21:18;;;;;;;;;42.67;33.67;;;;;15.08;53.55;101118.59;5070527;28;45547;-59
2022/05/04 07:23:43;;;;;;;;;45.00;37.33;;;;;15.08;52.90;101115.09;5065013;28;45375;-60
2022/05/04 07:26:09;;;;;;;;;37.33;33.67;;;;;15.07;53.06;101114.22;5063434;28;46123;-60
2022/05/04 07:28:34;;;;;;;;;39.00;35.67;;;;;15.15;53.36;101122.69;5075655;27;45501;-60
2022/05/04 07:31:00;;;;;;;;;41.00;36.75;;;;;15.22;52.82;101126.75;5076428;28;45507;-60
2022/05/04 07:33:25;;;;;;;;;39.67;35.33;;;;;15.20;53.23;101130.41;5074203;27;45607;-60
2022/05/04 07:35:50;;;;;;;;;41.00;34.25;;;;;15.19;52.85;101124.25;5055560;28;47134;-60
2022/05/04 07:38:16;;;;;;;;;46.00;36.00;;;;;15.25;52.75;101123.94;5055913;28;45441;-64
2022/05/04 07:43:25;;;;;;;;;50.00;38.33;;;;;15.18;53.01;101126.97;5061305;28;45456;-60
2022/05/04 07:45:51;;;;;;;;;48.00;38.25;;;;;15.19;52.54;101126.91;5055561;28;46093;-59
2022/05/04 07:48:16;;;;;;;;;43.00;36.00;;;;;15.20;52.51;101139.19;5058896;28;45634;-60
2022/05/04 07:50:42;;;;;;;;;40.67;34.67;;;;;15.25;52.93;101134.56;5060780;28;45526;-60
2022/05/04 07:53:07;;;;;;;;;40.33;34.67;;;;;15.32;52.97;101132.50;5055627;28;45594;-60
2022/05/04 07:55:33;;;;;;;;;42.33;35.00;;;;;15.31;52.82;101122.81;5056655;28;45415;-61
2022/05/04 07:57:59;;;;;;;;;42.67;35.00;;;;;15.36;52.42;101126.09;5062745;28;45560;-60
2022/05/04 08:05:53;;;;;;;;;49.25;40.50;;;;;15.48;52.66;101123.84;5070750;28;45798;-59
2022/05/04 08:08:19;;;;;;;;;40.25;34.50;;;;;15.48;52.13;101129.13;5056138;28;45658;-60
2022/05/04 08:10:44;;;;;;;;;43.67;36.33;;;;;15.48;51.99;101129.13;5056510;28;45419;-60
2022/05/04 08:13:10;;;;;;;;;41.00;36.00;;;;;15.48;51.78;101124.69;5055321;28;45391;-59
2022/05/04 08:15:35;;;;;;;;;41.50;36.75;;;;;15.50;52.85;101124.59;5059083;27;45972;-59
2022/05/04 08:18:02;;;;;;;;;42.33;35.33;;;;;15.50;52.63;101130.78;5055282;28;45480;-59
2022/05/04 08:20:28;;;;;;;;;47.50;38.00;;;;;15.54;51.81;101128.84;5055693;28;45438;-59
2022/05/04 08:22:54;;;;;;;;;43.00;36.33;;;;;15.52;51.78;101131.53;5055320;28;45378;-60
2022/05/04 08:25:19;;;;;;;;;44.00;37.33;;;;;15.57;51.98;101136.63;5070796;28;45480;-60
2022/05/04 08:27:44;;;;;;;;;41.33;35.00;;;;;15.56;51.93;101143.75;5075086;28;45795;-59
2022/05/04 08:30:10;;;;;;;;;46.75;39.00;;;;;15.61;52.66;101143.53;5069579;28;45427;-59
2022/05/04 08:32:36;;;;;;;;;46.33;35.33;;;;;15.64;52.69;101143.38;5075572;28;45575;-60
2022/05/04 08:35:01;;;;;;;;;43.67;36.00;;;;;15.57;51.45;101139.28;5071702;28;45482;-59
2022/05/04 08:37:27;;;;;;;;;45.50;38.00;;;;;15.60;52.02;101139.13;5066493;28;45553;-59
2022/05/04 08:39:56;;;;;;;;;43.67;36.33;;;;;15.57;52.13;101142.78;5066758;28;45507;-59
2022/05/04 08:42:22;;;;;;;;;45.75;37.00;;;;;15.63;51.71;101136.34;5061855;28;45344;-60
2022/05/04 08:44:52;;;;;;;;;38.33;34.00;;;;;15.71;51.52;101136.84;5064120;28;45406;-59
2022/05/04 08:47:21;;;;;;;;;42.67;33.67;;;;;15.79;52.03;101131.19;5076714;27;45548;-59
2022/05/04 08:49:48;;;;;;;;;43.00;38.33;;;;;15.81;51.92;101134.63;5081812;27;45351;-59
2022/05/04 08:52:13;;;;;;;;;47.50;40.00;;;;;15.84;52.26;101142.44;5080730;27;45449;-59
2022/05/04 08:54:40;;;;;;;;;47.25;37.50;;;;;15.83;52.54;101138.06;5079903;27;48753;-58
2022/05/04 08:57:06;;;;;;;;;47.50;39.75;;;;;15.88;51.08;101142.22;5081827;27;45540;-60
2022/05/04 08:59:31;;;;;;;;;39.00;34.67;;;;;15.92;51.79;101137.63;5077377;27;45357;-60
2022/05/04 09:01:56;;;;;;;;;42.67;37.00;;;;;15.88;51.01;101139.56;5072005;28;45612;-59
2022/05/04 09:04:22;;;;;;;;;39.33;35.67;;;;;15.87;51.77;101135.19;5078481;27;45925;-59
2022/05/04 09:06:48;;;;;;;;;45.67;37.33;;;;;15.92;51.27;101134.09;5079891;27;45438;-59
2022/05/04 09:09:16;;;;;;;;;39.00;34.00;;;;;15.96;51.30;101140.97;5079647;27;45463;-60
2022/05/04 09:11:43;;;;;;;;;41.33;36.33;;;;;15.98;51.29;101145.25;5067982;27;45583;-60
2022/05/04 09:14:17;;;;;;;;;48.00;36.50;;;;;16.02;51.28;101153.94;5061425;28;45577;-60
2022/05/04 09:16:43;;;;;;;;;40.00;34.33;;;;;16.04;50.86;101146.75;5067760;28;45425;-60
2022/05/04 09:19:14;;;;;;;;;43.67;37.00;;;;;16.07;51.63;101151.94;5061197;28;45402;-60
2022/05/04 09:21:40;;;;;;;;;42.67;36.67;;;;;16.08;51.49;101151.84;5061356;28;45452;-59
2022/05/04 09:24:06;;;;;;;;;45.67;35.00;;;;;16.10;51.35;101155.28;5072486;28;46239;-60
2022/05/04 09:26:37;;;;;;;;;42.50;37.50;;;;;16.07;50.84;101141.31;5072685;28;45653;-60
2022/05/04 09:29:04;;;;;;;;;41.33;34.67;;;;;16.05;51.16;101141.38;5061409;28;45426;-60
2022/05/04 09:31:33;;;;;;;;;45.33;36.33;;;;;16.06;50.57;101144.88;5072882;28;45529;-60
2022/05/04 09:34:06;;;;;;;;;44.00;37.00;;;;;15.94;51.10;101122.50;5090785;27;46161;-60
2022/05/04 09:36:36;;;;;;;;;52.33;38.00;;;;;16.01;50.88;101133.66;5096271;27;45410;-59
2022/05/04 09:44:55;;;;;;;;;38.00;31.67;;;;;16.15;49.87;101130.28;5077285;28;45420;-59
2022/05/04 09:47:22;;;;;;;;;45.33;36.00;;;;;16.19;50.75;101126.56;5077421;27;45500;-59
2022/05/04 09:49:49;;;;;;;;;39.33;34.33;;;;;16.26;50.52;101128.00;5070937;27;45467;-60
2022/05/04 09:52:20;;;;;;;;;40.67;35.00;;;;;16.29;50.06;101127.81;5058836;28;45496;-60
2022/05/04 09:54:46;;;;;;;;;35.00;31.33;;;;;16.33;49.58;101122.28;5057451;28;46337;-60
2022/05/04 09:57:12;;;;;;;;;42.33;35.00;;;;;16.33;49.83;101130.25;5064691;28;45367;-60
2022/05/04 09:59:38;;;;;;;;;39.33;33.67;;;;;16.36;49.33;101121.25;5058785;28;45440;-60
2022/05/04 10:02:07;;;;;;;;;30.00;28.00;;;;;16.30;48.99;101108.31;5060769;28;45522;-60
2022/05/04 10:04:34;;;;;;;;;30.00;30.00;;;;;16.37;49.15;101123.00;5057018;28;46158;-59
2022/05/04 10:07:03;;;;;;;;;35.67;31.00;;;;;16.41;49.39;101121.88;5066606;28;45436;-59
2022/05/04 10:09:30;;;;;;;;;33.33;28.67;;;;;16.42;48.21;101118.31;5058171;28;45401;-59
2022/05/04 10:11:57;;;;;;;;;31.67;30.33;;;;;16.43;48.56;101113.84;5057551;28;45543;-59
2022/05/04 10:14:24;;;;;;;;;30.00;28.33;;;;;16.46;48.34;101114.53;5057411;28;47068;-59
2022/05/04 10:16:55;;;;;;;;;35.33;31.67;;;;;16.45;48.07;101115.47;5057544;28;45409;-59
2022/05/04 10:19:25;;;;;;;;;35.33;30.67;;;;;16.42;48.83;101114.78;5057265;28;45551;-60
2022/05/04 10:21:55;;;;;;;;;30.67;29.33;;;;;16.46;48.75;101119.84;5066546;28;45391;-60
2022/05/04 10:24:22;;;;;;;;;38.00;32.00;;;;;16.51;48.38;101115.16;5057032;28;46534;-61
2022/05/04 10:26:48;;;;;;;;;32.00;30.00;;;;;16.57;48.05;101111.31;5071720;28;45603;-60
2022/05/04 10:32:33;;;;;;;;;37.67;34.00;;;;;16.79;48.39;101124.38;5061979;28;45517;-61
2022/05/04 10:35:20;;;;;;;;;29.33;29.33;;;;;16.86;47.36;101131.06;5058601;28;46029;-60
2022/05/04 10:37:57;;;;;;;;;31.67;31.00;;;;;16.91;47.61;101125.53;5073135;28;45513;-61
2022/05/04 10:40:38;;;;;;;;;34.33;30.33;;;;;16.92;47.40;101130.75;5069625;27;45516;-61
2022/05/04 10:43:06;;;;;;;;;31.33;28.33;;;;;16.95;46.69;101135.03;5057667;28;45387;-60
2022/05/04 10:45:37;;;;;;;;;33.00;31.67;;;;;16.97;47.03;101139.34;5056671;28;46002;-60
2022/05/04 10:48:20;;;;;;;;;35.00;30.67;;;;;16.99;47.28;101140.13;5059987;28;45570;-60
2022/05/04 10:50:53;;;;;;;;;35.67;31.33;;;;;17.03;46.66;101139.94;5069685;28;45443;-60
2022/05/04 10:53:36;;;;;;;;;36.00;32.00;;;;;17.05;46.31;101136.25;5074619;28;45841;-67
2022/05/04 10:56:01;;;;;;;;;29.33;27.00;;;;;17.12;46.77;101147.44;5068690;28;45513;-64
2022/05/04 10:58:53;;;;;;;;;29.33;28.33;;;;;17.22;46.76;101141.53;5075118;28;45564;-64
2022/05/04 11:01:34;;;;;;;;;31.67;30.33;;;;;17.27;46.26;101133.28;5065812;28;45485;-62
2022/05/04 11:04:05;;;;;;;;;31.33;30.33;;;;;17.31;45.65;101144.63;5058648;28;45371;-63
2022/05/04 11:06:31;;;;;;;;;30.00;26.67;;;;;17.32;46.19;101130.41;5060006;28;45880;-63
2022/05/04 11:09:02;;;;;;;;;35.33;30.00;;;;;17.38;45.84;101130.94;5084384;27;45621;-65
2022/05/04 11:11:28;;;;;;;;;27.67;27.00;;;;;17.45;44.97;101131.44;5062669;27;45403;-66
2022/05/04 11:13:54;;;;;;;;;26.00;25.00;;;;;17.55;44.98;101129.13;5057778;27;45703;-64
2022/05/04 11:16:21;;;;;;;;;21.33;21.33;;;;;17.60;44.31;101124.41;5049290;27;46305;-65
2022/05/04 11:18:47;;;;;;;;;22.67;21.67;;;;;17.63;44.20;101126.91;5071323;28;45496;-65
2022/05/04 11:21:14;;;;;;;;;27.67;27.33;;;;;17.63;44.69;101127.75;5070323;27;45563;-64
2022/05/04 11:23:45;;;;;;;;;25.00;21.33;;;;;17.64;44.10;101118.81;5061917;27;45547;-64
2022/05/04 11:26:26;;;;;;;;;30.00;25.67;;;;;17.66;44.32;101116.06;5066711;27;45828;-63
2022/05/04 11:28:52;;;;;;;;;27.67;26.33;;;;;17.72;44.78;101120.19;5069973;27;45453;-64
2022/05/04 11:31:20;;;;;;;;;28.00;27.00;;;;;17.75;44.33;101115.53;5064007;27;45465;-66
2022/05/04 11:33:47;;;;;;;;;29.33;25.00;;;;;17.81;44.98;101120.56;5066508;28;45495;-63
2022/05/04 11:36:14;;;;;;;;;35.25;31.50;;;;;17.85;43.65;101111.44;5063059;28;46307;-63
2022/05/04 11:38:42;;;;;;;;;25.00;22.67;;;;;17.91;43.50;101114.69;5073320;27;45366;-62
2022/05/04 11:41:09;;;;;;;;;20.67;20.33;;;;;17.88;43.38;101108.59;5058553;27;45436;-62
2022/05/04 11:43:35;;;;;;;;;23.67;22.00;;;;;17.94;42.61;101110.06;5077861;27;45662;-62
2022/05/04 11:46:09;;;;;;;;;18.00;18.00;;;;;17.96;42.05;101108.16;5062425;27;45615;-61